createdAt,value
2023-07-29T00:02:14.600Z,79.59
2023-07-29T00:04:53.968Z,79.84
2023-07-29T00:07:33.343Z,79.94
2023-07-29T00:10:14.299Z,80.14
2023-07-29T00:12:53.750Z,80.01
2023-07-29T00:15:33.205Z,80.21
2023-07-29T00:18:17.674Z,80.20
2023-07-29T00:20:57.992Z,80.09
2023-07-29T00:23:37.853Z,80.05
2023-07-29T00:26:17.346Z,80.24
2023-07-29T00:28:56.689Z,80.22
2023-07-29T00:31:36.081Z,80.29
2023-07-29T00:34:21.816Z,80.32
2023-07-29T00:37:01.156Z,80.27
2023-07-29T00:39:40.654Z,80.71
2023-07-29T00:42:20.032Z,80.50
2023-07-29T00:44:59.361Z,80.14
2023-07-29T00:47:38.741Z,80.03
2023-07-29T00:50:24.504Z,80.02
2023-07-29T00:53:04.518Z,80.33
2023-07-29T00:55:44.013Z,80.45
2023-07-29T00:58:23.427Z,80.40
2023-07-29T01:01:03.516Z,80.30
2023-07-29T01:03:44.112Z,80.57
2023-07-29T01:06:39.820Z,80.61
2023-07-29T01:09:28.662Z,80.79
2023-07-29T01:12:17.234Z,80.73
2023-07-29T01:15:06.259Z,80.90
2023-07-29T01:17:51.552Z,80.82
2023-07-29T01:20:33.714Z,80.66
2023-07-29T01:23:13.105Z,80.72
2023-07-29T01:25:57.538Z,80.89
2023-07-29T01:28:37.109Z,80.97
2023-07-29T01:31:24.898Z,81.10
2023-07-29T01:34:10.169Z,81.15
2023-07-29T01:36:53.416Z,80.83
2023-07-29T01:39:36.948Z,80.91
2023-07-29T01:42:22.530Z,80.78
2023-07-29T01:45:01.942Z,80.81
2023-07-29T01:47:42.790Z,80.38
2023-07-29T01:50:22.205Z,80.51
2023-07-29T01:53:01.579Z,80.52
2023-07-29T01:55:40.956Z,80.65
2023-07-29T01:58:25.495Z,80.59
2023-07-29T02:01:04.950Z,80.52
2023-07-29T02:03:44.290Z,80.44
2023-07-29T02:06:23.608Z,80.45
2023-07-29T02:09:03.695Z,80.25
2023-07-29T02:11:43.130Z,80.33
2023-07-29T02:14:27.533Z,80.17
2023-07-29T02:17:06.845Z,80.50
2023-07-29T02:19:46.182Z,80.71
2023-07-29T02:22:26.271Z,80.28
2023-07-29T02:25:05.578Z,80.17
2023-07-29T02:27:45.180Z,80.41
2023-07-29T02:30:30.073Z,80.28
2023-07-29T02:33:09.433Z,80.35
2023-07-29T02:35:48.783Z,80.40
2023-07-29T02:38:28.077Z,80.40
2023-07-29T02:41:07.498Z,80.44
2023-07-29T02:43:47.644Z,80.50
2023-07-29T02:46:32.153Z,80.55
2023-07-29T02:49:12.212Z,80.75
2023-07-29T02:51:51.630Z,80.90
2023-07-29T02:54:30.953Z,80.30
2023-07-29T02:57:10.433Z,80.32
2023-07-29T02:59:49.714Z,80.47
2023-07-29T03:02:34.184Z,80.38
2023-07-29T03:05:15.049Z,80.44
2023-07-29T03:07:54.343Z,80.85
2023-07-29T03:10:33.708Z,81.04
2023-07-29T03:13:13.126Z,80.90
2023-07-29T03:15:52.430Z,80.85
2023-07-29T03:18:36.802Z,80.68
2023-07-29T03:21:16.935Z,80.88
2023-07-29T03:23:56.257Z,80.67
2023-07-29T03:26:35.882Z,80.60
2023-07-29T03:29:15.466Z,80.55
2023-07-29T03:31:54.789Z,80.43
2023-07-29T03:34:39.445Z,80.58
2023-07-29T03:37:18.898Z,80.35
2023-07-29T03:39:59.415Z,80.30
2023-07-29T03:42:39.323Z,80.67
2023-07-29T03:45:18.622Z,80.61
2023-07-29T03:47:57.951Z,80.71
2023-07-29T03:50:44.315Z,80.74
2023-07-29T03:53:23.683Z,80.67
2023-07-29T03:56:03.076Z,80.61
2023-07-29T03:58:42.477Z,80.56
2023-07-29T04:01:22.201Z,80.47
2023-07-29T04:04:01.601Z,80.52
2023-07-29T04:06:46.079Z,80.54
2023-07-29T04:09:25.534Z,80.57
2023-07-29T04:12:05.003Z,80.67
2023-07-29T04:14:44.564Z,80.73
2023-07-29T04:17:24.094Z,80.90
2023-07-29T04:20:03.646Z,80.69
2023-07-29T04:22:48.019Z,80.92
2023-07-29T04:25:27.470Z,80.95
2023-07-29T04:28:07.476Z,81.04
2023-07-29T04:30:46.817Z,81.30
2023-07-29T04:33:26.087Z,81.18
2023-07-29T04:36:05.444Z,81.29
2023-07-29T04:38:49.827Z,81.37
2023-07-29T04:41:29.202Z,81.40
2023-07-29T04:44:08.987Z,81.73
2023-07-29T04:46:48.335Z,81.86
2023-07-29T04:49:27.713Z,81.78
2023-07-29T04:52:07.011Z,82.16
2023-07-29T04:54:51.767Z,82.40
2023-07-29T04:57:31.519Z,82.22
2023-07-29T05:00:12.148Z,81.84
2023-07-29T05:02:51.571Z,81.94
2023-07-29T05:05:30.867Z,82.16
2023-07-29T05:08:10.195Z,82.05
2023-07-29T05:10:58.099Z,81.76
2023-07-29T05:13:37.394Z,81.46
2023-07-29T05:16:16.720Z,81.45
2023-07-29T05:18:56.064Z,81.33
2023-07-29T05:21:35.376Z,81.16
2023-07-29T05:24:14.914Z,81.28
2023-07-29T05:26:59.346Z,81.36
2023-07-29T05:29:38.640Z,81.45
2023-07-29T05:32:18.007Z,81.67
2023-07-29T05:34:57.329Z,81.43
2023-07-29T05:37:36.830Z,81.07
2023-07-29T05:40:16.978Z,80.97
2023-07-29T05:43:01.367Z,81.09
2023-07-29T05:45:40.639Z,81.34
2023-07-29T05:48:20.110Z,81.44
2023-07-29T05:50:59.495Z,81.15
2023-07-29T05:53:38.795Z,81.40
2023-07-29T05:56:18.112Z,81.95
2023-07-29T05:59:02.510Z,81.93
2023-07-29T06:01:41.828Z,81.86
2023-07-29T06:04:21.115Z,81.73
2023-07-29T06:07:00.507Z,81.77
2023-07-29T06:09:40.005Z,81.86
2023-07-29T06:12:19.318Z,82.01
2023-07-29T06:15:03.703Z,82.44
2023-07-29T06:17:43.172Z,82.35
2023-07-29T06:20:22.594Z,82.11
2023-07-29T06:23:01.911Z,82.03
2023-07-29T06:25:41.188Z,82.01
2023-07-29T06:28:20.592Z,82.14
2023-07-29T06:31:05.101Z,82.30
2023-07-29T06:33:44.876Z,82.39
2023-07-29T06:36:24.178Z,82.85
2023-07-29T06:39:03.495Z,82.79
2023-07-29T06:41:42.814Z,82.63
2023-07-29T06:44:22.195Z,82.64
2023-07-29T06:47:06.598Z,82.81
2023-07-29T06:49:45.944Z,82.38
2023-07-29T06:52:25.261Z,82.43
2023-07-29T06:55:04.547Z,82.30
2023-07-29T06:57:43.947Z,82.45
2023-07-29T07:00:23.588Z,82.69
2023-07-29T07:03:08.123Z,82.67
2023-07-29T07:05:47.669Z,82.82
2023-07-29T07:08:27.010Z,83.17
2023-07-29T07:11:06.548Z,83.86
2023-07-29T07:13:45.809Z,83.34
2023-07-29T07:16:25.229Z,82.83
2023-07-29T07:19:09.669Z,82.97
2023-07-29T07:21:49.012Z,83.48
2023-07-29T07:24:28.294Z,83.40
2023-07-29T07:27:07.617Z,83.73
2023-07-29T07:29:46.979Z,83.53
2023-07-29T07:32:26.439Z,82.82
2023-07-29T07:35:11.036Z,80.70
2023-07-29T07:37:50.364Z,80.34
2023-07-29T07:40:29.703Z,80.45
2023-07-29T07:43:09.304Z,80.12
2023-07-29T07:45:48.625Z,80.17
2023-07-29T07:48:27.989Z,80.61
2023-07-29T07:51:19.156Z,79.66
2023-07-29T07:53:58.442Z,79.78
2023-07-29T07:56:37.968Z,78.93
2023-07-29T07:59:18.240Z,78.60
2023-07-29T08:01:57.702Z,78.78
2023-07-29T08:04:36.956Z,78.89
2023-07-29T08:07:21.463Z,75.99
2023-07-29T08:10:00.769Z,73.60
2023-07-29T08:12:40.047Z,69.48
2023-07-29T08:15:19.340Z,71.04
2023-07-29T08:17:58.640Z,71.26
2023-07-29T08:20:37.986Z,71.50
2023-07-29T08:23:22.330Z,72.46
2023-07-29T08:26:04.013Z,73.32
2023-07-29T08:28:45.419Z,73.90
2023-07-29T08:31:24.931Z,74.32
2023-07-29T08:34:04.340Z,74.22
2023-07-29T08:36:43.623Z,74.92
2023-07-29T08:39:28.069Z,75.20
2023-07-29T08:42:12.859Z,75.34
2023-07-29T08:44:53.834Z,74.02
2023-07-29T08:47:33.141Z,73.07
2023-07-29T08:50:15.440Z,73.00
2023-07-29T08:52:57.065Z,73.32
2023-07-29T08:55:41.897Z,73.28
2023-07-29T08:58:22.067Z,73.55
2023-07-29T09:01:01.645Z,72.50
2023-07-29T09:03:41.417Z,72.86
2023-07-29T09:06:23.713Z,74.88
2023-07-29T09:09:03.678Z,74.94
2023-07-29T09:11:48.047Z,72.90
2023-07-29T09:14:28.101Z,70.13
2023-07-29T09:17:08.149Z,72.35
2023-07-29T09:19:47.702Z,71.96
2023-07-29T09:22:28.202Z,73.34
2023-07-29T09:25:07.970Z,69.82
2023-07-29T09:27:53.948Z,69.51
2023-07-29T09:30:34.870Z,70.81
2023-07-29T09:33:14.687Z,68.56
2023-07-29T09:35:54.631Z,69.36
2023-07-29T09:38:38.218Z,69.55
2023-07-29T09:41:21.482Z,69.17
2023-07-29T09:44:10.642Z,69.82
2023-07-29T09:46:54.914Z,68.53
2023-07-29T09:49:34.230Z,67.89
2023-07-29T09:52:17.661Z,68.37
2023-07-29T09:54:57.289Z,67.62
2023-07-29T09:57:36.641Z,68.14
2023-07-29T10:00:22.171Z,67.65
2023-07-29T10:03:01.921Z,67.49
2023-07-29T10:05:42.367Z,68.71
2023-07-29T10:08:22.576Z,68.31
2023-07-29T10:11:03.532Z,69.24
2023-07-29T10:13:47.989Z,69.08
2023-07-29T10:16:42.934Z,66.04
2023-07-29T10:19:24.014Z,66.19
2023-07-29T10:22:07.193Z,65.38
2023-07-29T10:24:51.281Z,64.61
2023-07-29T10:27:33.418Z,64.83
2023-07-29T10:30:14.699Z,65.73
2023-07-29T10:33:01.530Z,65.08
2023-07-29T10:35:42.867Z,65.86
2023-07-29T10:38:23.132Z,63.85
2023-07-29T10:41:04.536Z,64.84
2023-07-29T10:43:45.631Z,63.06
2023-07-29T10:46:26.580Z,62.83
2023-07-29T10:49:10.990Z,62.07
2023-07-29T10:51:53.057Z,62.77
2023-07-29T10:54:33.750Z,62.14
2023-07-29T10:57:13.788Z,61.93
2023-07-29T11:00:03.528Z,60.71
2023-07-29T11:02:45.002Z,60.58
2023-07-29T11:05:29.613Z,60.20
2023-07-29T11:08:25.552Z,58.99
2023-07-29T11:11:13.358Z,58.36
2023-07-29T11:13:52.906Z,56.91
2023-07-29T11:16:32.442Z,57.82
2023-07-29T11:19:15.961Z,59.26
2023-07-29T11:22:01.852Z,58.88
2023-07-29T11:24:41.126Z,58.30
2023-07-29T11:27:20.524Z,57.21
2023-07-29T11:30:07.394Z,57.44
2023-07-29T11:32:48.607Z,57.89
2023-07-29T11:35:28.498Z,57.47
2023-07-29T11:38:12.910Z,56.24
2023-07-29T11:41:01.778Z,55.78
2023-07-29T11:43:43.903Z,55.16
2023-07-29T11:46:23.220Z,52.65
2023-07-29T11:49:03.013Z,51.89
2023-07-29T11:51:42.900Z,51.40
2023-07-29T11:54:27.692Z,50.98
2023-07-29T11:57:07.090Z,49.37
2023-07-29T11:59:46.482Z,48.73
2023-07-29T12:02:29.291Z,48.15
2023-07-29T12:05:09.464Z,48.75
2023-07-29T12:07:50.998Z,48.79
2023-07-29T12:10:35.871Z,48.26
2023-07-29T12:13:16.780Z,48.93
2023-07-29T12:15:56.128Z,48.21
2023-07-29T12:18:38.693Z,48.04
2023-07-29T12:21:18.082Z,49.11
2023-07-29T12:24:00.595Z,49.02
2023-07-29T12:26:45.231Z,49.61
2023-07-29T12:29:27.057Z,50.53
2023-07-29T12:32:08.665Z,50.93
2023-07-29T12:34:48.095Z,50.57
2023-07-29T12:37:27.429Z,50.36
2023-07-29T12:40:06.702Z,50.52
2023-07-29T12:42:51.087Z,51.99
2023-07-29T12:45:30.949Z,52.98
2023-07-29T12:48:10.454Z,52.36
2023-07-29T12:50:49.970Z,52.57
2023-07-29T12:53:29.401Z,52.81
2023-07-29T12:56:08.688Z,53.53
2023-07-29T12:58:53.069Z,53.09
2023-07-29T13:01:32.562Z,53.27
2023-07-29T13:04:12.143Z,52.26
2023-07-29T13:06:51.502Z,52.32
2023-07-29T13:09:30.847Z,52.53
2023-07-29T13:12:10.431Z,52.31
2023-07-29T13:14:54.937Z,51.71
2023-07-29T13:17:34.497Z,51.82
2023-07-29T13:20:17.418Z,51.31
2023-07-29T13:22:56.714Z,50.24
2023-07-29T13:25:36.125Z,49.29
2023-07-29T13:28:15.548Z,48.26
2023-07-29T13:31:00.487Z,46.46
2023-07-29T13:33:39.814Z,47.83
2023-07-29T13:36:19.169Z,47.69
2023-07-29T13:38:58.516Z,46.21
2023-07-29T13:41:37.810Z,46.38
2023-07-29T13:44:17.149Z,47.17
2023-07-29T13:47:01.652Z,46.78
2023-07-29T13:49:40.980Z,47.94
2023-07-29T13:52:22.246Z,47.80
2023-07-29T13:55:01.579Z,46.62
2023-07-29T13:57:41.010Z,46.34
2023-07-29T14:00:21.209Z,46.79
2023-07-29T14:03:05.683Z,46.75
2023-07-29T14:05:45.149Z,46.11
2023-07-29T14:08:25.262Z,44.59
2023-07-29T14:11:04.662Z,44.85
2023-07-29T14:13:44.164Z,45.87
2023-07-29T14:16:23.530Z,45.05
2023-07-29T14:19:07.994Z,43.33
2023-07-29T14:21:47.391Z,40.88
2023-07-29T14:24:26.839Z,40.44
2023-07-29T14:27:06.218Z,40.16
2023-07-29T14:29:45.558Z,38.42
2023-07-29T14:32:25.103Z,37.82
2023-07-29T14:35:10.337Z,37.38
2023-07-29T14:37:49.615Z,37.10
2023-07-29T14:40:29.322Z,37.85
2023-07-29T14:43:08.594Z,36.97
2023-07-29T14:45:47.990Z,36.65
2023-07-29T14:48:27.309Z,37.19
2023-07-29T14:51:11.844Z,37.36
2023-07-29T14:53:51.328Z,37.49
2023-07-29T14:56:30.668Z,36.85
2023-07-29T14:59:10.041Z,36.44
2023-07-29T15:01:49.417Z,36.09
2023-07-29T15:04:28.703Z,35.93
2023-07-29T15:07:14.021Z,35.75
2023-07-29T15:09:53.929Z,35.67
2023-07-29T15:12:33.209Z,36.44
2023-07-29T15:15:13.932Z,35.70
2023-07-29T15:17:53.349Z,35.74
2023-07-29T15:20:32.707Z,36.27
2023-07-29T15:23:17.090Z,35.90
2023-07-29T15:25:56.432Z,36.02
2023-07-29T15:28:35.758Z,37.05
2023-07-29T15:31:15.293Z,36.67
2023-07-29T15:33:54.604Z,37.34
2023-07-29T15:36:34.137Z,37.35
2023-07-29T15:39:18.665Z,36.00
2023-07-29T15:41:58.135Z,35.62
2023-07-29T15:44:39.458Z,36.05
2023-07-29T15:47:20.954Z,35.63
2023-07-29T15:50:00.363Z,35.66
2023-07-29T15:52:44.292Z,35.74
2023-07-29T15:55:28.977Z,35.86
2023-07-29T15:58:08.334Z,36.70
2023-07-29T16:00:48.464Z,37.11
2023-07-29T16:03:27.889Z,38.00
2023-07-29T16:06:07.470Z,39.05
2023-07-29T16:08:46.900Z,39.13
2023-07-29T16:11:31.324Z,39.31
2023-07-29T16:14:10.666Z,39.44
2023-07-29T16:16:51.199Z,38.76
2023-07-29T16:19:34.103Z,38.29
2023-07-29T16:22:13.788Z,38.61
2023-07-29T16:24:53.610Z,38.04
2023-07-29T16:27:38.870Z,38.07
2023-07-29T16:30:18.560Z,37.77
2023-07-29T16:32:57.955Z,37.59
2023-07-29T16:35:37.291Z,37.02
2023-07-29T16:38:16.758Z,37.17
2023-07-29T16:41:10.875Z,37.52
2023-07-29T16:44:01.475Z,37.91
2023-07-29T16:46:40.780Z,38.62
2023-07-29T16:49:22.443Z,38.59
2023-07-29T16:52:02.159Z,38.48
2023-07-29T16:54:41.444Z,37.83
2023-07-29T16:57:20.793Z,37.73
2023-07-29T17:00:05.245Z,38.16
2023-07-29T17:02:44.656Z,38.46
2023-07-29T17:05:24.150Z,38.53
2023-07-29T17:08:03.433Z,38.27
2023-07-29T17:10:42.767Z,38.62
2023-07-29T17:13:22.161Z,38.72
2023-07-29T17:16:06.613Z,38.23
2023-07-29T17:18:46.156Z,38.12
2023-07-29T17:21:25.491Z,37.95
2023-07-29T17:24:04.908Z,37.59
2023-07-29T17:26:44.249Z,37.89
2023-07-29T17:29:23.606Z,38.38
2023-07-29T17:32:08.107Z,38.77
2023-07-29T17:34:47.401Z,38.84
2023-07-29T17:37:26.720Z,39.50
2023-07-29T17:40:06.077Z,39.91
2023-07-29T17:42:45.456Z,39.62
2023-07-29T17:45:24.771Z,40.15
2023-07-29T17:48:09.210Z,40.22
2023-07-29T17:50:49.539Z,40.16
2023-07-29T17:53:28.779Z,39.98
2023-07-29T17:56:10.287Z,40.39
2023-07-29T17:58:49.720Z,40.76
2023-07-29T18:01:29.129Z,40.94
2023-07-29T18:04:13.698Z,41.24
2023-07-29T18:06:53.028Z,41.99
2023-07-29T18:09:32.392Z,42.80
2023-07-29T18:12:12.789Z,43.37
2023-07-29T18:14:52.257Z,44.43
2023-07-29T18:17:31.597Z,44.74
2023-07-29T18:20:17.293Z,45.36
2023-07-29T18:22:56.701Z,44.80
2023-07-29T18:25:36.041Z,44.71
2023-07-29T18:28:15.661Z,44.89
2023-07-29T18:30:57.104Z,45.32
2023-07-29T18:33:36.448Z,46.00
2023-07-29T18:36:20.822Z,45.97
2023-07-29T18:39:00.126Z,46.84
2023-07-29T18:41:39.397Z,46.57
2023-07-29T18:44:18.687Z,47.17
2023-07-29T18:46:58.055Z,48.42
2023-07-29T18:49:37.462Z,48.39
2023-07-29T18:52:21.888Z,49.77
2023-07-29T18:55:01.533Z,50.50
2023-07-29T18:57:40.849Z,50.28
2023-07-29T19:00:20.683Z,50.69
2023-07-29T19:03:00.670Z,51.11
2023-07-29T19:05:40.025Z,51.61
2023-07-29T19:08:24.621Z,52.08
2023-07-29T19:11:03.958Z,52.34
2023-07-29T19:13:43.258Z,52.58
2023-07-29T19:16:22.989Z,52.67
2023-07-29T19:19:02.323Z,52.72
2023-07-29T19:21:41.624Z,52.94
2023-07-29T19:24:26.532Z,53.37
2023-07-29T19:27:07.633Z,53.54
2023-07-29T19:29:49.289Z,53.62
2023-07-29T19:32:28.972Z,53.59
2023-07-29T19:35:08.376Z,53.83
2023-07-29T19:37:47.650Z,54.13
2023-07-29T19:40:32.066Z,54.38
2023-07-29T19:43:11.553Z,54.75
2023-07-29T19:46:27.288Z,55.07
2023-07-29T19:48:57.328Z,55.54
2023-07-29T19:51:36.957Z,55.70
2023-07-29T19:54:16.497Z,56.27
2023-07-29T19:57:00.837Z,56.97
2023-07-29T19:59:48.671Z,56.88
2023-07-29T20:02:30.399Z,57.50
2023-07-29T20:05:09.755Z,58.08
2023-07-29T20:07:49.105Z,58.17
2023-07-29T20:10:29.396Z,58.65
2023-07-29T20:13:13.762Z,58.95
2023-07-29T20:15:53.633Z,59.43
2023-07-29T20:18:32.998Z,59.19
2023-07-29T20:21:12.349Z,59.58
2023-07-29T20:23:53.423Z,59.58
2023-07-29T20:26:34.659Z,59.41
2023-07-29T20:29:19.076Z,59.64
2023-07-29T20:31:58.572Z,59.91
2023-07-29T20:34:38.133Z,60.43
2023-07-29T20:37:17.434Z,60.77
2023-07-29T20:39:56.765Z,61.81
2023-07-29T20:42:36.133Z,61.67
2023-07-29T20:45:20.966Z,61.32
2023-07-29T20:48:00.342Z,61.53
2023-07-29T20:50:39.642Z,62.02
2023-07-29T20:53:19.958Z,62.50
2023-07-29T20:55:59.331Z,62.73
2023-07-29T20:58:38.612Z,62.89
2023-07-29T21:01:23.120Z,63.15
2023-07-29T21:04:02.489Z,63.17
2023-07-29T21:06:43.230Z,63.48
2023-07-29T21:09:22.721Z,63.78
2023-07-29T21:12:02.156Z,64.17
2023-07-29T21:14:41.574Z,64.18
2023-07-29T21:17:25.936Z,64.30
2023-07-29T21:20:05.777Z,64.24
2023-07-29T21:22:45.064Z,64.58
2023-07-29T21:25:24.618Z,64.54
2023-07-29T21:28:03.951Z,64.85
2023-07-29T21:30:44.111Z,64.90
2023-07-29T21:33:29.868Z,64.96
2023-07-29T21:36:09.446Z,64.97
2023-07-29T21:38:48.834Z,65.35
2023-07-29T21:41:28.299Z,65.73
2023-07-29T21:44:07.595Z,66.25
2023-07-29T21:46:46.977Z,66.12
2023-07-29T21:49:32.145Z,66.00
2023-07-29T21:52:12.287Z,65.94
2023-07-29T21:54:51.606Z,66.41
2023-07-29T21:57:30.911Z,66.22
2023-07-29T22:00:11.161Z,66.36
2023-07-29T22:02:50.922Z,66.53
2023-07-29T22:05:35.695Z,66.50
2023-07-29T22:08:15.696Z,66.89
2023-07-29T22:10:55.106Z,66.92
2023-07-29T22:13:34.559Z,67.24
2023-07-29T22:16:14.404Z,66.95
2023-07-29T22:18:53.705Z,67.28
2023-07-29T22:21:38.363Z,67.51
2023-07-29T22:24:17.844Z,67.95
2023-07-29T22:26:57.167Z,67.97
2023-07-29T22:29:36.434Z,68.23
2023-07-29T22:32:16.266Z,67.95
2023-07-29T22:34:55.605Z,68.28
2023-07-29T22:37:39.975Z,68.34
2023-07-29T22:40:21.549Z,68.34
2023-07-29T22:43:00.858Z,68.75
2023-07-29T22:45:40.149Z,68.71
2023-07-29T22:48:19.523Z,68.74
2023-07-29T22:50:58.787Z,68.95
2023-07-29T22:53:43.669Z,68.98
2023-07-29T22:56:22.980Z,68.71
2023-07-29T22:59:02.311Z,68.73
2023-07-29T23:01:41.646Z,69.02
2023-07-29T23:04:21.008Z,69.27
2023-07-29T23:07:00.744Z,69.25
2023-07-29T23:09:45.091Z,69.33
2023-07-29T23:12:24.392Z,69.44
2023-07-29T23:15:03.955Z,69.33
2023-07-29T23:17:43.390Z,69.77
2023-07-29T23:20:24.228Z,70.17
2023-07-29T23:23:04.738Z,70.75
2023-07-29T23:25:49.103Z,71.72
2023-07-29T23:28:28.469Z,72.57
2023-07-29T23:31:09.055Z,73.18
2023-07-29T23:33:48.382Z,73.24
2023-07-29T23:36:27.691Z,73.55
2023-07-29T23:39:06.980Z,73.95
2023-07-29T23:41:51.330Z,74.09
2023-07-29T23:44:30.783Z,74.35
2023-07-29T23:47:10.127Z,74.42
2023-07-29T23:49:49.559Z,74.49
2023-07-29T23:52:28.894Z,75.11
2023-07-29T23:55:08.294Z,75.15
2023-07-29T23:57:52.650Z,75.60
